Time;durP1;ratioP1;P1;durP2;ratioP2;P2;SDS_P1;SDS_P2;PMS_P1;PMS_P2;Temp;Humidity;BMP_temperature;BMP_pressure;BME280_temperature;BME280_humidity;BME280_pressure;Samples;Min_cycle;Max_cycle;Signal;HPM_P1;HPM_P2
2021/07/08 00:02:11;;;;;;;7.53;3.83;;;;;;;19.86;74.26;99167.92;2301261;77;21014;-86
2021/07/08 00:05:11;;;;;;;8.20;4.50;;;;;;;19.81;73.44;99172.58;2290055;76;21004;-87
2021/07/08 00:08:12;;;;;;;5.55;4.40;;;;;;;19.76;73.92;99164.50;2283357;78;21474;-86
2021/07/08 00:11:13;;;;;;;6.78;4.17;;;;;;;19.70;74.21;99170.71;2283177;78;20944;-86
2021/07/08 00:14:14;;;;;;;7.55;4.22;;;;;;;19.65;74.77;99165.77;2283480;78;22240;-85
2021/07/08 00:17:15;;;;;;;4.58;3.98;;;;;;;19.57;75.12;99158.97;2283358;78;21026;-86
2021/07/08 00:20:15;;;;;;;7.55;4.25;;;;;;;19.53;76.08;99157.75;2283545;78;21473;-86
2021/07/08 00:23:16;;;;;;;5.92;4.33;;;;;;;19.49;75.18;99155.27;2283428;78;21051;-87
2021/07/08 00:26:17;;;;;;;7.15;4.65;;;;;;;19.43;75.87;99159.63;2283433;78;20941;-85
2021/07/08 00:29:18;;;;;;;4.83;4.50;;;;;;;19.35;75.71;99163.12;2283318;78;21523;-86
2021/07/08 00:32:19;;;;;;;7.30;4.42;;;;;;;19.30;76.04;99164.62;2283285;78;21013;-86
2021/07/08 00:35:19;;;;;;;5.67;4.58;;;;;;;19.25;76.48;99168.45;2283256;78;21481;-87
2021/07/08 00:38:20;;;;;;;6.10;4.70;;;;;;;19.25;76.34;99163.66;2283363;78;20973;-86
2021/07/08 00:41:21;;;;;;;4.95;4.55;;;;;;;19.23;76.90;99164.41;2282692;78;21123;-87
2021/07/08 00:44:22;;;;;;;5.58;4.50;;;;;;;19.23;76.75;99168.39;2283283;78;21006;-87
2021/07/08 00:47:23;;;;;;;10.82;4.55;;;;;;;19.21;77.02;99158.00;2283391;78;21028;-87
2021/07/08 00:50:23;;;;;;;5.15;4.33;;;;;;;19.19;77.33;99152.09;2283421;78;20949;-88
2021/07/08 00:53:24;;;;;;;6.90;4.22;;;;;;;19.13;77.72;99149.53;2283439;78;20979;-87
2021/07/08 00:56:25;;;;;;;3.80;3.37;;;;;;;19.04;78.42;99155.67;2283391;78;21013;-87
2021/07/08 00:59:26;;;;;;;4.30;3.98;;;;;;;18.99;78.03;99151.53;2283389;77;21015;-86
2021/07/08 01:02:27;;;;;;;5.10;4.60;;;;;;;18.94;78.65;99153.55;2283490;78;21082;-85
2021/07/08 01:05:28;;;;;;;4.97;4.58;;;;;;;18.91;78.76;99149.98;2294228;77;21126;-88
2021/07/08 01:08:29;;;;;;;6.03;4.60;;;;;;;18.88;78.62;99149.64;2301177;77;20959;-87
2021/07/08 01:11:30;;;;;;;6.60;4.00;;;;;;;18.86;78.43;99149.05;2301462;77;20954;-87
2021/07/08 01:14:31;;;;;;;8.58;4.83;;;;;;;18.85;78.81;99164.16;2301499;77;21046;-87
2021/07/08 01:17:31;;;;;;;6.53;4.80;;;;;;;18.90;78.94;99164.81;2301473;77;21489;-88
2021/07/08 01:20:32;;;;;;;5.45;4.90;;;;;;;18.94;80.68;99169.98;2301198;77;21013;-88
2021/07/08 01:23:33;;;;;;;5.78;4.62;;;;;;;18.98;80.13;99175.12;2300976;77;21593;-87
2021/07/08 01:26:34;;;;;;;5.65;4.95;;;;;;;19.00;79.71;99179.17;2301551;77;20962;-86
2021/07/08 01:29:35;;;;;;;7.05;4.72;;;;;;;19.00;79.50;99174.38;2301420;77;21017;-87
2021/07/08 01:32:35;;;;;;;7.92;4.62;;;;;;;18.93;79.69;99180.30;2301568;77;21453;-87
2021/07/08 01:35:36;;;;;;;10.85;5.37;;;;;;;18.90;79.84;99181.53;2300946;77;21005;-88
2021/07/08 01:38:37;;;;;;;5.80;4.05;;;;;;;18.91;79.80;99182.34;2301244;77;21522;-87
2021/07/08 01:41:38;;;;;;;4.17;3.85;;;;;;;18.92;80.00;99176.00;2301439;77;20986;-86
2021/07/08 01:44:39;;;;;;;6.33;4.42;;;;;;;18.91;80.42;99184.48;2301447;77;21013;-87
2021/07/08 01:47:39;;;;;;;6.80;4.40;;;;;;;18.94;80.05;99185.39;2301310;77;20973;-86
2021/07/08 01:50:40;;;;;;;10.40;4.95;;;;;;;18.90;80.06;99189.50;2301473;77;20978;-87
2021/07/08 01:53:41;;;;;;;4.47;4.10;;;;;;;18.85;80.26;99184.58;2301211;77;21035;-87
2021/07/08 01:56:42;;;;;;;4.47;3.87;;;;;;;18.78;80.79;99189.95;2301432;77;20923;-88
2021/07/08 01:59:42;;;;;;;7.50;5.53;;;;;;;18.72;80.60;99186.33;2301632;77;21017;-88
2021/07/08 02:02:43;;;;;;;6.47;5.05;;;;;;;18.71;81.29;99191.34;2301442;77;20935;-88
2021/07/08 02:05:44;;;;;;;6.62;5.12;;;;;;;18.72;81.15;99194.80;2289609;77;21075;-87
2021/07/08 02:08:45;;;;;;;5.85;4.50;;;;;;;18.77;81.04;99191.50;2283205;77;21432;-87
2021/07/08 02:11:46;;;;;;;5.78;4.17;;;;;;;18.71;81.48;99194.51;2283275;78;20981;-87
2021/07/08 02:14:46;;;;;;;4.55;4.15;;;;;;;18.62;81.15;99191.82;2283010;78;21023;-86
2021/07/08 02:17:47;;;;;;;4.85;4.45;;;;;;;18.57;81.39;99203.62;2283252;78;20952;-86
2021/07/08 02:20:48;;;;;;;5.12;4.12;;;;;;;18.55;81.25;99212.28;2283397;77;21298;-87
2021/07/08 02:23:49;;;;;;;6.33;3.87;;;;;;;18.57;81.37;99208.92;2283386;78;21030;-88
2021/07/08 02:26:50;;;;;;;6.92;4.28;;;;;;;18.58;81.70;99211.86;2283295;77;20993;-88
2021/07/08 02:29:50;;;;;;;5.30;4.90;;;;;;;18.52;81.50;99216.19;2282925;78;20962;-88
2021/07/08 02:32:52;;;;;;;5.50;4.87;;;;;;;18.56;81.71;99217.88;2283365;78;21008;-87
2021/07/08 02:35:53;;;;;;;5.37;4.10;;;;;;;18.55;81.63;99221.56;2283538;78;21060;-87
2021/07/08 02:38:53;;;;;;;4.92;4.20;;;;;;;18.55;81.77;99217.06;2283275;78;20960;-87
2021/07/08 02:41:54;;;;;;;6.00;4.67;;;;;;;18.56;81.71;99215.22;2283496;78;21039;-88
2021/07/08 02:44:55;;;;;;;11.73;5.20;;;;;;;18.58;82.07;99215.33;2283391;78;21494;-87
2021/07/08 02:47:56;;;;;;;5.83;5.08;;;;;;;18.61;81.70;99217.53;2283342;78;20976;-87
2021/07/08 02:50:57;;;;;;;7.30;4.35;;;;;;;18.63;81.64;99219.95;2283314;78;20988;-88
2021/07/08 02:53:58;;;;;;;4.45;4.05;;;;;;;18.69;81.68;99223.91;2283458;78;20980;-87
2021/07/08 02:56:59;;;;;;;6.33;5.15;;;;;;;18.75;81.56;99224.37;2283372;78;21064;-87
2021/07/08 02:59:59;;;;;;;8.93;7.83;;;;;;;18.82;81.42;99230.09;2283418;77;21450;-87
2021/07/08 03:03:00;;;;;;;7.65;6.25;;;;;;;18.87;81.56;99228.94;2283374;78;21015;-87
2021/07/08 03:06:01;;;;;;;5.90;5.30;;;;;;;18.92;81.47;99231.20;2294633;77;21517;-88
2021/07/08 03:09:02;;;;;;;5.83;5.10;;;;;;;18.93;81.39;99225.41;2301024;77;21845;-88
2021/07/08 03:12:02;;;;;;;5.10;4.75;;;;;;;19.03;81.11;99226.51;2301286;77;21033;-88
2021/07/08 03:15:03;;;;;;;5.55;5.03;;;;;;;19.01;80.96;99225.09;2301132;77;20950;-87
2021/07/08 03:18:04;;;;;;;4.12;3.83;;;;;;;19.00;80.83;99222.14;2301243;77;21636;-87
2021/07/08 03:21:05;;;;;;;4.92;4.30;;;;;;;19.00;81.04;99221.63;2301061;77;20974;-87
2021/07/08 03:24:06;;;;;;;6.30;5.70;;;;;;;18.96;80.87;99213.83;2301296;77;22101;-87
2021/07/08 03:27:07;;;;;;;7.42;5.80;;;;;;;18.95;80.90;99214.86;2274105;77;21025;-87
2021/07/08 03:30:07;;;;;;;9.20;6.75;;;;;;;18.91;80.81;99211.53;2301173;77;20947;-87
2021/07/08 03:33:08;;;;;;;7.58;5.70;;;;;;;18.91;81.28;99213.67;2301650;77;21058;-87
2021/07/08 03:36:09;;;;;;;7.12;5.75;;;;;;;18.90;81.10;99216.03;2301291;77;20979;-87
2021/07/08 03:39:10;;;;;;;5.85;5.08;;;;;;;18.95;81.12;99222.82;2301348;77;20958;-86
2021/07/08 03:42:10;;;;;;;8.03;4.95;;;;;;;19.01;81.00;99223.77;2301329;77;20978;-87
2021/07/08 03:45:11;;;;;;;10.70;6.62;;;;;;;19.01;81.30;99221.91;2301167;77;20946;-86
2021/07/08 03:48:12;;;;;;;8.80;6.62;;;;;;;19.06;81.10;99219.94;2301215;77;20947;-87
2021/07/08 03:51:13;;;;;;;9.53;7.10;;;;;;;19.14;81.09;99227.61;2301247;77;20935;-86
2021/07/08 03:54:14;;;;;;;11.85;6.85;;;;;;;19.19;80.92;99226.92;2301439;77;20978;-86
2021/07/08 03:57:14;;;;;;;9.08;7.20;;;;;;;19.25;81.02;99229.50;2301227;77;21001;-86
2021/07/08 04:00:15;;;;;;;10.25;6.83;;;;;;;19.28;80.90;99233.03;2300953;77;20982;-88
2021/07/08 04:03:16;;;;;;;7.87;6.45;;;;;;;19.34;81.06;99228.69;2301836;77;21065;-86
2021/07/08 04:06:17;;;;;;;11.15;7.47;;;;;;;19.37;80.86;99227.42;2289927;76;21012;-87
2021/07/08 04:09:18;;;;;;;11.50;8.48;;;;;;;19.40;80.90;99230.45;2283515;77;21564;-86
2021/07/08 04:12:19;;;;;;;11.75;7.60;;;;;;;19.43;80.97;99235.83;2283391;78;20964;-87
2021/07/08 04:15:20;;;;;;;11.68;7.80;;;;;;;19.40;80.61;99231.78;2283392;78;20956;-86
2021/07/08 04:18:20;;;;;;;12.05;7.97;;;;;;;19.44;80.64;99236.11;2283755;78;21011;-87
2021/07/08 04:21:21;;;;;;;12.33;7.35;;;;;;;19.54;80.66;99239.05;2283448;78;20952;-86
2021/07/08 04:24:22;;;;;;;10.63;7.60;;;;;;;19.56;80.46;99241.79;2284026;78;20995;-88
2021/07/08 04:27:23;;;;;;;10.50;6.92;;;;;;;19.62;80.45;99248.06;2255055;78;21539;-87
2021/07/08 04:30:24;;;;;;;12.28;8.55;;;;;;;19.66;80.45;99267.00;2283371;78;20980;-87
2021/07/08 04:33:25;;;;;;;8.55;6.92;;;;;;;19.74;80.63;99272.00;2283355;77;21015;-86
2021/07/08 04:36:25;;;;;;;11.93;7.55;;;;;;;19.81;80.50;99276.20;2283468;78;21392;-86
2021/07/08 04:39:26;;;;;;;11.30;8.00;;;;;;;19.86;80.15;99282.18;2283129;78;20956;-86
2021/07/08 04:42:27;;;;;;;10.70;8.65;;;;;;;19.99;80.25;99285.16;2282818;78;21027;-85
2021/07/08 04:45:29;;;;;;;13.83;9.38;;;;;;;20.09;79.92;99288.88;2283129;78;20993;-86
2021/07/08 04:48:30;;;;;;;12.60;8.25;;;;;;;20.11;79.70;99285.98;2283361;78;21007;-86
2021/07/08 04:51:31;;;;;;;14.03;7.80;;;;;;;20.14;79.71;99292.20;2255245;78;21531;-87
2021/07/08 04:54:31;;;;;;;11.83;7.78;;;;;;;20.17;79.59;99289.08;2283451;78;20973;-86
2021/07/08 04:57:32;;;;;;;11.30;8.90;;;;;;;20.24;79.42;99283.67;2283605;78;20991;-87
2021/07/08 05:00:33;;;;;;;20.05;9.88;;;;;;;20.37;79.18;99292.75;2283901;78;21000;-85
2021/07/08 05:03:34;;;;;;;15.68;9.20;;;;;;;20.35;79.03;99294.31;2285391;78;20972;-85
2021/07/08 05:06:35;;;;;;;12.85;8.13;;;;;;;20.42;79.06;99293.70;2285643;76;21004;-84
2021/07/08 05:09:36;;;;;;;14.47;8.18;;;;;;;20.51;78.61;99288.08;2285271;78;21079;-85
2021/07/08 05:12:37;;;;;;;15.93;9.30;;;;;;;20.52;78.35;99289.17;2285516;78;21005;-86
2021/07/08 05:15:38;;;;;;;16.10;9.53;;;;;;;20.60;78.52;99290.16;2256912;78;21031;-87
2021/07/08 05:18:39;;;;;;;20.85;10.30;;;;;;;20.57;78.05;99291.13;2283653;78;20991;-88
2021/07/08 05:21:40;;;;;;;16.70;10.68;;;;;;;20.52;78.18;99295.02;2283871;78;20970;-89
2021/07/08 05:24:40;;;;;;;17.30;10.45;;;;;;;20.53;78.35;99293.45;2283599;77;21587;-89
2021/07/08 05:27:41;;;;;;;18.48;10.82;;;;;;;20.59;78.15;99293.06;2283689;77;21032;-89
2021/07/08 05:30:42;;;;;;;18.80;11.33;;;;;;;20.61;78.08;99287.79;2283899;78;20961;-88
2021/07/08 05:33:43;;;;;;;21.97;13.65;;;;;;;20.61;78.03;99288.31;2283829;78;20987;-89
2021/07/08 05:36:44;;;;;;;21.25;10.75;;;;;;;20.62;77.97;99290.73;2285483;78;21000;-83
2021/07/08 05:39:45;;;;;;;22.15;11.83;;;;;;;20.65;78.01;99296.11;2283721;77;21503;-88
2021/07/08 05:42:45;;;;;;;20.45;12.53;;;;;;;20.66;77.81;99294.55;2283469;78;20988;-88
2021/07/08 05:45:46;;;;;;;22.52;13.72;;;;;;;20.57;77.66;99297.78;2283468;78;21507;-87
2021/07/08 05:48:47;;;;;;;21.35;13.22;;;;;;;20.51;78.15;99292.06;2283727;78;20979;-86
2021/07/08 05:51:48;;;;;;;24.85;13.88;;;;;;;20.42;78.15;99292.37;2284305;78;21020;-88
2021/07/08 05:54:49;;;;;;;26.77;13.08;;;;;;;20.38;78.22;99304.48;2284320;78;21524;-84
2021/07/08 05:57:49;;;;;;;25.80;14.93;;;;;;;20.42;78.54;99312.84;2285579;78;20956;-81
2021/07/08 06:00:50;;;;;;;30.35;15.48;;;;;;;20.38;78.48;99313.80;2284702;78;21036;-88
2021/07/08 06:03:51;;;;;;;29.32;14.53;;;;;;;20.32;78.88;99313.39;2283921;78;21483;-89
2021/07/08 06:06:52;;;;;;;27.50;14.93;;;;;;;20.33;78.67;99322.19;2305205;77;21008;-87
2021/07/08 06:09:53;;;;;;;28.07;15.50;;;;;;;20.26;78.98;99314.30;2315662;77;20978;-86
2021/07/08 06:12:53;;;;;;;27.37;16.50;;;;;;;20.29;78.87;99320.48;2315656;77;21005;-86
2021/07/08 06:15:54;;;;;;;33.05;16.52;;;;;;;20.22;79.48;99313.14;2315584;77;20992;-86
2021/07/08 06:18:55;;;;;;;36.33;18.12;;;;;;;20.22;79.48;99313.14;2315750;77;20972;-83
2021/07/08 06:21:56;;;;;;;37.23;19.40;;;;;;;20.25;79.50;99314.01;2315450;77;21227;-89
2021/07/08 06:24:57;;;;;;;33.70;18.42;;;;;;;20.32;79.39;99317.91;2315287;77;20980;-87
2021/07/08 06:27:58;;;;;;;34.78;17.70;;;;;;;20.36;79.39;99321.20;2314946;77;21559;-84
2021/07/08 06:30:58;;;;;;;41.55;20.77;;;;;;;20.30;79.34;99317.30;2315457;77;21064;-85
2021/07/08 06:33:59;;;;;;;37.95;21.25;;;;;;;20.40;79.60;99321.05;2316405;77;20945;-89
2021/07/08 06:37:00;;;;;;;44.05;22.45;;;;;;;20.43;79.77;99325.13;2315778;77;20984;-87
2021/07/08 06:40:01;;;;;;;40.95;20.37;;;;;;;20.37;79.49;99330.80;2314446;77;21550;-87
2021/07/08 06:43:02;;;;;;;37.78;21.12;;;;;;;20.29;79.70;99327.12;2314623;77;21012;-87
2021/07/08 06:46:02;;;;;;;40.28;20.62;;;;;;;20.35;79.85;99330.22;2314839;77;20992;-86
2021/07/08 06:49:08;;;;;;;35.98;20.57;;;;;;;20.37;80.07;99334.78;2314882;77;21512;-86
2021/07/08 06:52:06;;;;;;;39.90;22.27;;;;;;;20.34;79.92;99325.13;2314052;77;20988;-87
2021/07/08 06:55:07;;;;;;;34.40;20.92;;;;;;;20.34;80.05;99325.13;2316059;77;21032;-80
2021/07/08 06:58:10;;;;;;;33.58;19.27;;;;;;;20.34;80.39;99317.96;2315308;77;21004;-87
2021/07/08 07:01:11;;;;;;;38.20;21.73;;;;;;;20.29;80.54;99318.34;2315753;77;21557;-86
2021/07/08 07:04:12;;;;;;;37.13;23.02;;;;;;;20.20;80.86;99311.21;2314878;77;21000;-86
2021/07/08 07:07:15;;;;;;;33.55;20.52;;;;;;;20.18;80.69;99312.77;2305275;77;21014;-87
2021/07/08 07:10:16;;;;;;;34.88;20.80;;;;;;;20.18;80.65;99310.11;2301810;77;21066;-85
2021/07/08 07:13:16;;;;;;;37.40;22.93;;;;;;;20.27;80.94;99317.25;2301772;77;21490;-88
2021/07/08 07:16:17;;;;;;;37.70;23.07;;;;;;;20.33;80.74;99315.53;2301625;77;20959;-88
2021/07/08 07:19:18;;;;;;;39.15;23.87;;;;;;;20.33;80.76;99324.32;2301736;77;21018;-88
2021/07/08 07:22:19;;;;;;;32.10;21.12;;;;;;;20.35;80.67;99322.23;2301768;77;21042;-89
2021/07/08 07:25:23;;;;;;;42.75;25.77;;;;;;;20.42;80.81;99322.14;2301783;77;20953;-87
2021/07/08 07:28:23;;;;;;;38.55;25.12;;;;;;;20.52;80.66;99332.25;2301649;77;21019;-89
2021/07/08 07:31:25;;;;;;;46.30;28.38;;;;;;;20.61;80.40;99328.22;2301850;77;21062;-88
2021/07/08 07:34:26;;;;;;;44.58;26.15;;;;;;;20.70;80.28;99324.98;2301756;77;20993;-89
2021/07/08 07:37:27;;;;;;;45.08;27.00;;;;;;;20.74;80.42;99323.47;2301157;77;20935;-86
2021/07/08 07:40:30;;;;;;;39.95;25.68;;;;;;;20.79;80.11;99325.45;2301464;77;21012;-86
2021/07/08 07:43:32;;;;;;;43.75;26.85;;;;;;;20.84;80.20;99323.42;2300846;77;21045;-86
2021/07/08 07:46:33;;;;;;;43.50;25.30;;;;;;;20.90;79.95;99307.86;2274787;77;21038;-88
2021/07/08 07:49:34;;;;;;;41.45;25.35;;;;;;;20.99;79.69;99321.11;2301371;77;20998;-87
2021/07/08 07:52:35;;;;;;;33.92;23.95;;;;;;;21.09;79.35;99316.53;2301122;77;20935;-87
2021/07/08 07:55:36;;;;;;;38.15;24.45;;;;;;;21.30;78.98;99315.95;2301257;77;21508;-86
2021/07/08 07:58:37;;;;;;;36.68;22.98;;;;;;;21.49;78.38;99308.63;2301234;77;21430;-87
2021/07/08 08:01:38;;;;;;;32.75;22.15;;;;;;;21.58;78.04;99306.69;2275227;77;21001;-87
2021/07/08 08:04:53;;;;;;;32.15;20.65;;;;;;;21.71;77.87;99300.79;2300920;77;21062;-87
2021/07/08 08:11:04;;;;;;;31.77;22.25;;;;;;;21.72;77.48;99289.08;2279228;78;20940;-87
2021/07/08 08:14:05;;;;;;;26.77;19.57;;;;;;;21.75;77.28;99291.26;2279543;78;21520;-88
2021/07/08 08:17:05;;;;;;;34.10;21.27;;;;;;;21.86;77.07;99299.23;2279616;78;20941;-87
2021/07/08 08:20:06;;;;;;;23.52;16.32;;;;;;;22.01;76.83;99297.34;2279802;78;21032;-86
2021/07/08 08:23:07;;;;;;;26.00;18.12;;;;;;;21.90;76.20;99296.88;2279501;78;21043;-87
2021/07/08 08:26:08;;;;;;;22.32;15.08;;;;;;;21.71;76.91;99291.47;2279771;78;20987;-86
2021/07/08 08:29:09;;;;;;;27.17;21.12;;;;;;;21.76;77.13;99300.37;2279731;78;21027;-86
2021/07/08 08:32:09;;;;;;;24.70;19.40;;;;;;;22.01;76.62;99302.67;2279636;78;20909;-86
2021/07/08 08:35:10;;;;;;;22.27;17.27;;;;;;;22.27;76.07;99306.63;2279774;78;20988;-87
2021/07/08 08:38:11;;;;;;;26.70;21.00;;;;;;;22.58;75.57;99302.58;2279581;78;21459;-87
2021/07/08 08:41:12;;;;;;;20.85;16.02;;;;;;;22.98;75.32;99296.28;2279646;78;20956;-87
2021/07/08 08:44:13;;;;;;;23.15;16.37;;;;;;;23.45;72.71;99297.14;2279758;78;21000;-87
2021/07/08 08:47:13;;;;;;;13.45;10.88;;;;;;;23.76;71.85;99297.78;2279676;78;20973;-85
2021/07/08 08:50:14;;;;;;;18.98;15.85;;;;;;;24.05;69.62;99299.70;2279817;78;20980;-85
2021/07/08 08:53:15;;;;;;;20.97;18.23;;;;;;;24.15;70.64;99290.16;2279775;78;21048;-85
2021/07/08 08:56:16;;;;;;;20.05;16.80;;;;;;;24.23;69.19;99289.17;2279628;78;21301;-85
2021/07/08 08:59:17;;;;;;;17.87;15.93;;;;;;;24.40;69.29;99282.36;2279648;78;21031;-85
2021/07/08 09:02:18;;;;;;;21.10;18.30;;;;;;;24.10;68.36;99286.36;2279632;78;21051;-86
2021/07/08 09:05:19;;;;;;;16.82;14.83;;;;;;;24.06;69.04;99291.15;2279609;78;21123;-85
2021/07/08 09:08:20;;;;;;;24.10;16.55;;;;;;;24.06;68.71;99289.28;2311563;77;21025;-85
2021/07/08 09:11:21;;;;;;;25.77;19.57;;;;;;;23.94;69.23;99279.25;2314795;77;21455;-85
2021/07/08 09:14:22;;;;;;;16.97;15.15;;;;;;;23.69;69.25;99270.47;2314679;77;20981;-86
2021/07/08 09:17:23;;;;;;;20.95;17.67;;;;;;;23.71;69.91;99270.21;2314714;77;21483;-85
2021/07/08 09:20:25;;;;;;;23.20;19.90;;;;;;;23.74;69.91;99265.69;2314561;77;21072;-85
2021/07/08 09:23:26;;;;;;;21.57;16.12;;;;;;;23.70;70.25;99265.39;2314301;77;21009;-83
2021/07/08 09:26:26;;;;;;;19.87;17.77;;;;;;;23.74;70.26;99253.13;2314369;77;21051;-84
2021/07/08 09:29:27;;;;;;;19.67;16.42;;;;;;;23.77;70.23;99245.95;2314752;77;21005;-86
2021/07/08 09:32:29;;;;;;;20.37;18.27;;;;;;;23.87;69.99;99248.45;2314858;77;21332;-87
2021/07/08 09:35:30;;;;;;;14.10;12.73;;;;;;;24.05;70.43;99252.09;2315338;77;20996;-86
2021/07/08 09:38:31;;;;;;;20.75;18.37;;;;;;;24.21;69.40;99252.47;2315359;77;21519;-85
2021/07/08 09:41:31;;;;;;;22.02;19.57;;;;;;;24.30;69.61;99252.28;2314782;77;21475;-86
2021/07/08 09:44:32;;;;;;;20.45;18.40;;;;;;;24.53;69.26;99249.02;2315214;77;20988;-81
2021/07/08 09:47:33;;;;;;;21.80;19.50;;;;;;;24.62;68.21;99247.47;2317816;77;20961;-82
2021/07/08 09:50:34;;;;;;;21.40;19.12;;;;;;;24.64;68.44;99250.15;2316666;77;20996;-83
2021/07/08 09:53:35;;;;;;;21.80;19.48;;;;;;;24.89;68.28;99248.70;2286318;77;20992;-86
2021/07/08 09:56:45;;;;;;;18.65;16.85;;;;;;;25.27;67.80;99248.09;2315902;77;20997;-84
2021/07/08 09:59:49;;;;;;;17.37;15.75;;;;;;;25.66;67.61;99244.44;2317453;77;20991;-87
2021/07/08 10:02:49;;;;;;;17.85;16.05;;;;;;;25.91;66.02;99248.54;2315918;77;21452;-83
2021/07/08 10:05:50;;;;;;;20.40;16.70;;;;;;;25.95;65.83;99254.97;2317405;77;21048;-81
2021/07/08 10:08:52;;;;;;;18.77;16.93;;;;;;;26.06;64.75;99241.86;2317438;77;21036;-82
2021/07/08 10:11:52;;;;;;;19.17;16.95;;;;;;;26.32;64.58;99242.62;2317686;77;21025;-82
2021/07/08 10:14:53;;;;;;;19.05;17.32;;;;;;;26.67;64.42;99245.58;2317252;77;20967;-82
2021/07/08 10:17:59;;;;;;;18.50;16.80;;;;;;;26.76;63.80;99247.97;2317704;77;20980;-81
2021/07/08 10:21:01;;;;;;;17.57;16.00;;;;;;;26.85;64.03;99247.14;2316782;77;21015;-82
2021/07/08 10:23:59;;;;;;;18.45;16.57;;;;;;;27.05;63.94;99239.58;2315755;77;21020;-81
2021/07/08 10:27:00;;;;;;;17.62;15.95;;;;;;;27.34;63.58;99238.91;2317107;77;21004;-81
2021/07/08 10:30:03;;;;;;;19.10;17.20;;;;;;;27.59;62.19;99228.02;2316586;77;21625;-82
2021/07/08 10:33:04;;;;;;;17.75;16.25;;;;;;;27.57;61.40;99224.81;2316069;77;21047;-82
2021/07/08 10:36:05;;;;;;;19.70;17.62;;;;;;;27.66;61.67;99222.37;2284250;77;21511;-87
2021/07/08 10:39:05;;;;;;;22.50;16.52;;;;;;;27.95;61.58;99219.73;2315343;77;20953;-85
2021/07/08 10:42:06;;;;;;;17.45;15.85;;;;;;;28.04;60.89;99215.35;2315968;77;20988;-89
2021/07/08 10:45:07;;;;;;;19.15;17.32;;;;;;;28.05;60.47;99205.65;2315445;77;20984;-87
2021/07/08 10:48:08;;;;;;;14.70;13.32;;;;;;;27.96;59.86;99203.84;2315764;77;20991;-81
2021/07/08 10:51:09;;;;;;;17.42;15.80;;;;;;;27.88;58.26;99206.59;2315132;77;20991;-87
2021/07/08 10:54:10;;;;;;;19.75;17.75;;;;;;;27.66;58.81;99201.66;2315256;77;20945;-88
2021/07/08 10:57:10;;;;;;;23.25;19.00;;;;;;;27.72;59.71;99198.39;2316613;77;20988;-85
2021/07/08 11:00:11;;;;;;;19.52;17.75;;;;;;;28.02;60.02;99202.73;2316204;77;20984;-87
2021/07/08 11:03:12;;;;;;;21.50;17.98;;;;;;;28.37;58.69;99196.25;2314399;77;21071;-87
2021/07/08 11:06:13;;;;;;;20.43;18.30;;;;;;;28.54;59.00;99191.78;2314566;77;21123;-86
2021/07/08 11:09:16;;;;;;;22.62;18.20;;;;;;;28.60;58.54;99191.41;2314685;77;21017;-85
2021/07/08 11:12:16;;;;;;;18.60;16.82;;;;;;;28.81;58.48;99185.27;2314689;77;21024;-87
2021/07/08 11:15:17;;;;;;;25.35;18.87;;;;;;;28.80;58.17;99190.92;2314484;77;21071;-86
2021/07/08 11:18:18;;;;;;;23.85;20.08;;;;;;;28.70;58.28;99181.61;2314618;77;21638;-82
2021/07/08 11:21:19;;;;;;;20.32;17.98;;;;;;;28.78;58.55;99176.39;2314753;77;21068;-84
2021/07/08 11:24:20;;;;;;;21.37;18.92;;;;;;;28.64;57.87;99176.05;2314481;77;21009;-83
2021/07/08 11:27:20;;;;;;;23.92;21.07;;;;;;;28.57;58.22;99174.48;2314504;77;20996;-84
2021/07/08 11:30:24;;;;;;;21.15;19.00;;;;;;;28.68;58.70;99173.83;2314500;77;20949;-84
2021/07/08 11:33:24;;;;;;;20.92;18.57;;;;;;;28.95;58.16;99177.30;2314558;77;20972;-86
2021/07/08 11:36:25;;;;;;;17.92;16.05;;;;;;;29.02;57.08;99173.72;2314709;77;21020;-86
2021/07/08 11:39:28;;;;;;;20.92;18.73;;;;;;;29.22;56.95;99178.58;2314608;77;21468;-86
2021/07/08 11:42:29;;;;;;;22.37;19.62;;;;;;;29.48;57.46;99172.28;2314535;77;21083;-87
2021/07/08 11:45:30;;;;;;;21.27;19.20;;;;;;;29.74;57.03;99168.93;2314446;77;20948;-85
2021/07/08 11:48:31;;;;;;;19.75;17.77;;;;;;;30.10;56.74;99168.36;2314239;77;21092;-88
2021/07/08 11:51:32;;;;;;;19.70;17.23;;;;;;;30.37;55.94;99160.86;2314256;77;21014;-85
2021/07/08 11:54:33;;;;;;;21.77;15.72;;;;;;;30.62;55.79;99156.84;2314518;77;20996;-86
2021/07/08 11:57:34;;;;;;;17.32;15.70;;;;;;;30.82;55.03;99152.42;2314561;77;20976;-86
2021/07/08 12:00:35;;;;;;;16.73;15.03;;;;;;;30.88;54.47;99148.25;2314593;77;21024;-84
2021/07/08 12:03:39;;;;;;;17.10;15.48;;;;;;;31.05;54.05;99144.37;2311215;77;22703;-84
2021/07/08 12:06:39;;;;;;;17.48;15.88;;;;;;;31.20;53.89;99139.19;2314435;77;21102;-85
2021/07/08 12:09:40;;;;;;;17.77;16.07;;;;;;;31.31;53.30;99133.27;2314475;77;21631;-85
2021/07/08 12:12:41;;;;;;;14.78;13.38;;;;;;;31.39;52.96;99130.38;2314463;77;20964;-86
2021/07/08 12:15:42;;;;;;;15.45;13.95;;;;;;;31.39;52.67;99124.41;2314735;77;20984;-86
2021/07/08 12:18:43;;;;;;;16.42;15.03;;;;;;;31.45;52.42;99115.61;2314553;77;21040;-86
2021/07/08 12:21:44;;;;;;;16.42;14.78;;;;;;;31.46;52.37;99117.23;2314483;77;21467;-85
2021/07/08 12:24:45;;;;;;;16.80;15.28;;;;;;;31.41;52.00;99117.34;2314485;77;21023;-86
2021/07/08 12:27:45;;;;;;;15.90;14.45;;;;;;;31.31;51.75;99116.23;2314545;77;20945;-85
2021/07/08 12:30:46;;;;;;;17.48;15.95;;;;;;;31.38;51.97;99116.06;2314121;77;21062;-85
2021/07/08 12:33:47;;;;;;;16.90;15.35;;;;;;;31.55;51.90;99109.18;2314491;77;20945;-85
2021/07/08 12:36:48;;;;;;;14.65;13.35;;;;;;;31.66;51.40;99104.55;2283169;77;21063;-84
2021/07/08 12:39:49;;;;;;;16.25;14.68;;;;;;;31.81;51.70;99102.58;2314348;77;21063;-85
2021/07/08 12:42:50;;;;;;;15.43;14.07;;;;;;;31.94;51.54;99101.72;2314246;77;21476;-85
2021/07/08 12:45:50;;;;;;;16.60;14.83;;;;;;;32.04;51.07;99094.67;2314508;77;21052;-84
2021/07/08 12:48:51;;;;;;;15.18;13.98;;;;;;;32.17;50.46;99095.67;2314537;77;21013;-85
2021/07/08 12:51:52;;;;;;;15.28;13.85;;;;;;;32.23;50.14;99092.52;2314616;77;21018;-86
2021/07/08 12:54:53;;;;;;;15.75;13.28;;;;;;;32.24;49.29;99087.90;2314462;77;20988;-87
2021/07/08 12:57:54;;;;;;;19.98;14.35;;;;;;;32.26;49.40;99084.31;2314677;77;20949;-86
2021/07/08 13:00:54;;;;;;;15.90;14.00;;;;;;;32.16;49.03;99082.69;2314568;77;21057;-86
2021/07/08 13:03:55;;;;;;;16.90;15.10;;;;;;;32.18;49.60;99079.10;2314309;77;20935;-85
2021/07/08 13:06:56;;;;;;;14.50;13.18;;;;;;;32.13;49.62;99073.84;2314590;77;21511;-85
2021/07/08 13:09:57;;;;;;;14.15;12.90;;;;;;;32.07;47.97;99075.08;2314737;77;21028;-86
2021/07/08 13:12:58;;;;;;;14.93;13.60;;;;;;;32.10;48.76;99062.29;2314909;77;20976;-86
2021/07/08 13:15:59;;;;;;;11.10;9.93;;;;;;;32.15;48.83;99059.42;2314785;77;21495;-85
2021/07/08 13:19:00;;;;;;;11.43;10.30;;;;;;;32.21;48.35;99053.32;2314746;77;20988;-84
2021/07/08 13:22:00;;;;;;;17.55;10.78;;;;;;;32.13;47.83;99064.92;2314777;77;21000;-86
2021/07/08 13:25:02;;;;;;;11.78;10.78;;;;;;;32.03;47.37;99052.46;2314758;77;20992;-85
2021/07/08 13:28:04;;;;;;;11.70;10.72;;;;;;;31.98;47.91;99060.15;2314675;77;21511;-85
2021/07/08 13:31:05;;;;;;;14.18;11.28;;;;;;;31.92;47.62;99060.06;2283616;77;21056;-86
2021/07/08 13:34:05;;;;;;;12.50;11.38;;;;;;;31.80;47.27;99055.77;2314530;77;21000;-87
2021/07/08 13:37:06;;;;;;;12.63;11.53;;;;;;;31.73;47.81;99051.88;2314332;77;21042;-87
2021/07/08 13:40:07;;;;;;;11.12;10.00;;;;;;;31.71;48.08;99048.13;2314247;77;21039;-87
2021/07/08 13:43:08;;;;;;;10.03;9.05;;;;;;;31.74;47.33;99052.14;2314231;77;20992;-87
2021/07/08 13:46:09;;;;;;;10.82;10.00;;;;;;;31.68;46.94;99055.52;2314171;77;21020;-87
2021/07/08 13:49:10;;;;;;;10.30;9.40;;;;;;;31.66;47.79;99045.57;2314381;77;21020;-86
2021/07/08 13:52:11;;;;;;;28.47;12.43;;;;;;;31.75;48.12;99053.18;2314572;77;21012;-86
2021/07/08 13:55:12;;;;;;;10.72;9.90;;;;;;;31.83;48.31;99051.66;2314697;77;21016;-86
2021/07/08 13:58:13;;;;;;;11.10;10.30;;;;;;;31.96;48.50;99051.55;2314655;77;20996;-86
2021/07/08 14:01:14;;;;;;;10.48;9.58;;;;;;;32.04;48.22;99055.97;2314848;77;20976;-85